Time;durP1;ratioP1;P1;durP2;ratioP2;P2;SDS_P1;SDS_P2;PMS_P1;PMS_P2;Temp;Humidity;BMP_temperature;BMP_pressure;BME280_temperature;BME280_humidity;BME280_pressure;Samples;Min_cycle;Max_cycle;Signal;HPM_P1;HPM_P2
2022/03/19 00:02:04;;;;;;;6.97;3.00;;;;;;;2.51;100.00;100973.88;10399739;28;20533;-58
2022/03/19 00:07:07;;;;;;;5.93;3.10;;;;;;;2.42;100.00;100978.53;10418089;28;20042;-58
2022/03/19 00:12:14;;;;;;;7.47;3.30;;;;;;;2.37;100.00;100976.94;10420397;28;20075;-55
2022/03/19 00:17:17;;;;;;;7.53;3.13;;;;;;;2.31;100.00;100978.00;10439339;28;20037;-58
2022/03/19 00:22:20;;;;;;;8.50;3.50;;;;;;;2.27;100.00;100987.84;10429178;28;20057;-55
2022/03/19 00:27:25;;;;;;;8.57;3.28;;;;;;;2.22;100.00;100980.94;10392001;28;20077;-56
2022/03/19 00:32:28;;;;;;;8.10;3.38;;;;;;;2.17;100.00;100973.09;10400564;28;20099;-58
2022/03/19 00:37:32;;;;;;;4.82;3.10;;;;;;;2.09;100.00;100970.66;10415346;28;20041;-57
2022/03/19 00:42:36;;;;;;;6.88;3.35;;;;;;;2.01;100.00;100964.69;10419879;28;20442;-55
2022/03/19 00:47:39;;;;;;;7.05;3.53;;;;;;;1.98;100.00;100960.34;10418366;28;20573;-58
2022/03/19 00:52:42;;;;;;;8.15;3.50;;;;;;;1.97;100.00;100955.03;10412739;28;20068;-57
2022/03/19 00:57:49;;;;;;;9.07;3.97;;;;;;;1.90;100.00;100949.03;10413186;28;20502;-56
2022/03/19 01:02:52;;;;;;;11.05;3.33;;;;;;;1.91;100.00;100948.09;10418725;28;20127;-55
2022/03/19 01:07:56;;;;;;;7.43;3.88;;;;;;;1.84;100.00;100952.72;10417918;28;20042;-57
2022/03/19 01:13:03;;;;;;;8.60;3.90;;;;;;;1.85;100.00;100949.16;10412871;28;20080;-58
2022/03/19 01:18:06;;;;;;;8.30;4.00;;;;;;;1.87;100.00;100948.25;10416699;28;20116;-56
2022/03/19 01:23:09;;;;;;;7.93;3.97;;;;;;;1.84;100.00;100949.22;10413112;28;20132;-57
2022/03/19 01:28:14;;;;;;;7.65;3.90;;;;;;;1.79;100.00;100944.03;10415185;28;20068;-55
2022/03/19 01:33:17;;;;;;;6.45;3.40;;;;;;;1.72;100.00;100939.78;10415140;28;20718;-58
2022/03/19 01:38:20;;;;;;;8.57;4.20;;;;;;;1.65;100.00;100938.22;10413148;28;20152;-57
2022/03/19 01:43:24;;;;;;;8.77;4.70;;;;;;;1.57;100.00;100925.13;10410468;28;20542;-57
2022/03/19 01:48:27;;;;;;;8.52;4.25;;;;;;;1.47;100.00;100926.28;10400762;28;20088;-57
2022/03/19 01:53:30;;;;;;;10.90;4.13;;;;;;;1.41;100.00;100935.31;10394690;28;20533;-58
2022/03/19 01:58:36;;;;;;;9.70;4.72;;;;;;;1.27;100.00;100950.72;10412991;28;20192;-59
2022/03/19 02:03:39;;;;;;;10.00;6.22;;;;;;;1.70;100.00;100957.56;10409552;28;20169;-59
2022/03/19 02:08:44;;;;;;;11.27;5.45;;;;;;;2.25;100.00;100954.25;10410176;28;20049;-55
2022/03/19 02:13:49;;;;;;;9.32;4.80;;;;;;;2.59;100.00;100939.91;10403662;28;20118;-57
2022/03/19 02:18:52;;;;;;;7.95;4.13;;;;;;;2.81;100.00;100947.22;10429933;28;20038;-55
2022/03/19 02:29:19;;;;;;;6.53;3.58;;;;;;;2.96;100.00;100933.41;10415505;28;20116;-55
2022/03/19 02:34:23;;;;;;;8.27;3.83;;;;;;;3.09;100.00;100933.88;10394796;28;20158;-57
2022/03/19 02:39:30;;;;;;;6.25;3.60;;;;;;;3.13;100.00;100916.88;10412050;28;20073;-55
2022/03/19 02:44:34;;;;;;;5.43;3.22;;;;;;;3.22;100.00;100921.03;10420537;28;20150;-56
2022/03/19 02:49:37;;;;;;;7.70;3.40;;;;;;;3.16;100.00;100916.78;10421316;28;20081;-57
2022/03/19 02:54:42;;;;;;;7.43;3.45;;;;;;;3.11;100.00;100913.38;10426263;28;20045;-59
2022/03/19 02:59:45;;;;;;;8.60;3.40;;;;;;;3.08;100.00;100914.34;10424520;28;20215;-57
2022/03/19 03:04:48;;;;;;;6.32;3.30;;;;;;;3.05;100.00;100906.47;10422249;28;20048;-54
2022/03/19 03:09:52;;;;;;;7.00;2.80;;;;;;;3.07;100.00;100911.72;10418514;28;20077;-55
2022/03/19 03:14:55;;;;;;;8.38;3.00;;;;;;;3.10;100.00;100906.31;10415684;28;20077;-56
2022/03/19 03:19:58;;;;;;;7.28;3.00;;;;;;;3.12;100.00;100904.47;10414771;28;20044;-55
2022/03/19 03:25:03;;;;;;;5.82;2.85;;;;;;;3.19;100.00;100905.97;10410939;28;20453;-57
2022/03/19 03:30:07;;;;;;;8.43;3.47;;;;;;;3.21;100.00;100900.63;10410260;28;20053;-57
2022/03/19 03:35:10;;;;;;;8.27;3.00;;;;;;;3.26;100.00;100900.47;10413173;28;20141;-54
2022/03/19 03:40:18;;;;;;;5.97;2.80;;;;;;;3.29;100.00;100892.38;10419022;28;20037;-54
2022/03/19 03:45:21;;;;;;;5.85;2.70;;;;;;;3.30;100.00;100902.06;10410356;28;20601;-55
2022/03/19 03:50:24;;;;;;;4.63;2.47;;;;;;;3.27;100.00;100892.41;10414156;28;20137;-54
2022/03/19 03:55:28;;;;;;;5.18;2.70;;;;;;;3.26;100.00;100901.31;10412596;28;20129;-56
2022/03/19 04:00:32;;;;;;;8.07;3.10;;;;;;;3.26;100.00;100896.00;10412227;28;20057;-56
2022/03/19 04:05:46;;;;;;;6.57;2.92;;;;;;;3.29;100.00;100895.03;10412512;28;20057;-54
2022/03/19 04:10:53;;;;;;;7.40;3.05;;;;;;;3.13;100.00;100887.56;10416822;28;20069;-54
2022/03/19 04:15:56;;;;;;;5.22;2.50;;;;;;;3.02;100.00;100887.91;10428715;28;20046;-54
2022/03/19 04:20:59;;;;;;;8.88;2.80;;;;;;;2.96;100.00;100880.16;10411870;28;20123;-56
2022/03/19 04:26:04;;;;;;;8.20;2.65;;;;;;;2.91;100.00;100884.75;10414857;28;20152;-54
2022/03/19 04:31:07;;;;;;;9.25;2.80;;;;;;;2.85;100.00;100877.84;10419122;28;21211;-54
2022/03/19 04:41:33;;;;;;;7.18;2.65;;;;;;;2.74;100.00;100879.97;10393584;28;20127;-56
2022/03/19 04:46:36;;;;;;;9.00;3.20;;;;;;;2.65;100.00;100894.44;10419290;28;20136;-54
2022/03/19 04:51:40;;;;;;;6.50;2.60;;;;;;;2.56;100.00;100895.66;10410852;28;20059;-56
2022/03/19 04:56:45;;;;;;;7.22;2.80;;;;;;;2.57;100.00;100888.50;10411604;28;20536;-54
2022/03/19 05:01:48;;;;;;;10.07;3.08;;;;;;;2.51;100.00;100880.75;10409160;28;20137;-55
2022/03/19 05:06:51;;;;;;;7.40;2.63;;;;;;;2.46;100.00;100884.41;10409635;28;20077;-57
2022/03/19 05:11:56;;;;;;;7.85;2.80;;;;;;;2.41;100.00;100877.50;10409998;28;20148;-54
2022/03/19 05:16:59;;;;;;;6.90;2.60;;;;;;;2.36;100.00;100874.97;10408682;28;20076;-54
2022/03/19 05:22:01;;;;;;;8.32;2.70;;;;;;;2.27;100.00;100869.94;10394863;28;20506;-57
2022/03/19 05:27:06;;;;;;;6.40;2.53;;;;;;;2.15;100.00;100874.72;10410536;28;20163;-56
2022/03/19 05:32:10;;;;;;;5.43;2.50;;;;;;;2.13;100.00;100881.00;10407503;28;20038;-57
2022/03/19 05:37:14;;;;;;;7.75;2.53;;;;;;;2.10;100.00;100879.31;10412160;28;20037;-57
2022/03/19 05:42:19;;;;;;;7.78;2.58;;;;;;;2.02;100.00;100877.78;10407346;28;20566;-54
2022/03/19 05:47:21;;;;;;;8.70;2.70;;;;;;;1.93;100.00;100873.63;10407461;28;20144;-55
2022/03/19 05:52:25;;;;;;;6.70;2.20;;;;;;;1.89;100.00;100874.63;10407735;28;20048;-54
2022/03/19 05:57:30;;;;;;;6.93;2.60;;;;;;;1.85;100.00;100866.75;10410307;28;20175;-57
2022/03/19 06:02:32;;;;;;;7.68;2.10;;;;;;;1.80;100.00;100867.78;10407956;28;20556;-59
2022/03/19 06:07:35;;;;;;;8.43;2.60;;;;;;;1.70;100.00;100864.56;10431010;28;20524;-54
2022/03/19 06:12:40;;;;;;;11.25;2.70;;;;;;;1.68;100.00;100875.22;10425412;28;20075;-54
2022/03/19 06:17:43;;;;;;;7.15;2.33;;;;;;;1.70;100.00;100872.53;10390891;28;20111;-54
2022/03/19 06:22:47;;;;;;;6.28;2.53;;;;;;;1.74;100.00;100871.50;10412569;28;20041;-55
2022/03/19 06:27:52;;;;;;;9.25;2.58;;;;;;;1.79;100.00;100861.63;10406818;28;20160;-55
2022/03/19 06:32:55;;;;;;;9.13;2.72;;;;;;;1.89;100.00;100861.34;10404545;28;20041;-54
2022/03/19 06:37:58;;;;;;;7.57;2.40;;;;;;;2.26;100.00;100860.22;10405427;28;20038;-54
2022/03/19 06:43:03;;;;;;;7.07;2.67;;;;;;;2.40;100.00;100862.44;10404966;28;20152;-54
2022/03/19 06:48:10;;;;;;;8.00;2.53;;;;;;;2.51;100.00;100873.63;10408451;28;20055;-55
2022/03/19 06:53:13;;;;;;;10.10;2.63;;;;;;;2.66;100.00;100866.91;10388875;28;20096;-58
2022/03/19 06:58:19;;;;;;;8.75;2.60;;;;;;;2.71;100.00;100867.66;10405665;28;20494;-53
2022/03/19 07:03:22;;;;;;;9.13;2.47;;;;;;;2.75;100.00;100869.31;10410662;28;20111;-56
2022/03/19 07:08:26;;;;;;;10.10;2.70;;;;;;;2.77;100.00;100875.41;10413721;28;20139;-57
2022/03/19 07:13:31;;;;;;;9.35;2.70;;;;;;;2.89;100.00;100881.25;10410756;28;20041;-54
2022/03/19 07:18:34;;;;;;;9.85;2.70;;;;;;;2.96;100.00;100869.50;10389189;28;20452;-55
2022/03/19 07:23:37;;;;;;;5.78;2.10;;;;;;;3.03;100.00;100863.03;10405957;28;20560;-56
2022/03/19 07:28:43;;;;;;;7.70;2.38;;;;;;;3.11;100.00;100859.25;10409035;28;20054;-59
2022/03/19 07:33:47;;;;;;;8.60;2.30;;;;;;;3.08;100.00;100844.22;10413861;28;20042;-59
2022/03/19 07:38:50;;;;;;;8.07;2.33;;;;;;;3.13;100.00;100849.38;10412041;28;20041;-64
2022/03/19 07:43:59;;;;;;;8.88;2.50;;;;;;;3.08;100.00;100834.44;10409918;28;20045;-60
2022/03/19 07:49:03;;;;;;;6.82;2.03;;;;;;;3.17;100.00;100835.03;10414628;28;20057;-60
2022/03/19 07:54:07;;;;;;;8.73;2.40;;;;;;;3.24;100.00;100828.56;10412887;28;20079;-60
2022/03/19 07:59:12;;;;;;;7.32;2.13;;;;;;;3.33;100.00;100828.25;10413313;28;20116;-61
2022/03/19 08:04:17;;;;;;;7.53;2.28;;;;;;;3.42;100.00;100834.16;10412491;28;20468;-60
2022/03/19 08:09:21;;;;;;;6.50;2.30;;;;;;;3.50;100.00;100824.97;10424755;28;20038;-59
2022/03/19 08:14:27;;;;;;;7.47;2.25;;;;;;;3.60;100.00;100825.47;10419526;28;20080;-59
2022/03/19 08:19:31;;;;;;;7.10;2.28;;;;;;;3.72;100.00;100831.28;10414636;28;20116;-58
2022/03/19 08:24:54;;;;;;;8.50;2.38;;;;;;;3.83;100.00;100818.41;10390291;28;20041;-59
2022/03/19 08:29:59;;;;;;;8.30;2.53;;;;;;;3.94;100.00;100815.34;10406405;28;20041;-60
2022/03/19 08:35:03;;;;;;;5.60;2.10;;;;;;;3.96;100.00;100826.81;10414152;28;20049;-61
2022/03/19 08:40:17;;;;;;;8.70;2.50;;;;;;;4.10;100.00;100812.94;10392166;28;20498;-60
2022/03/19 08:45:23;;;;;;;10.10;2.78;;;;;;;4.13;100.00;100802.13;10413759;28;20137;-61
2022/03/19 08:50:28;;;;;;;8.63;2.22;;;;;;;4.25;100.00;100801.66;10413134;28;20065;-61
2022/03/19 08:55:32;;;;;;;7.93;2.40;;;;;;;4.34;100.00;100794.19;10412957;28;20045;-61
2022/03/19 09:00:40;;;;;;;8.18;2.47;;;;;;;4.47;100.00;100787.41;10407981;28;20091;-61
2022/03/19 09:05:43;;;;;;;8.23;2.10;;;;;;;4.59;100.00;100783.34;10408386;28;20088;-60
2022/03/19 09:10:46;;;;;;;6.47;2.15;;;;;;;4.67;100.00;100769.69;10410905;28;20408;-58
2022/03/19 09:15:50;;;;;;;9.15;2.78;;;;;;;4.73;100.00;100769.44;10414065;28;20125;-57
2022/03/19 09:20:53;;;;;;;7.25;2.33;;;;;;;4.93;100.00;100766.75;10405633;28;20421;-57
2022/03/19 09:25:56;;;;;;;7.88;2.35;;;;;;;5.06;100.00;100751.03;10413790;28;20048;-59
2022/03/19 09:31:01;;;;;;;6.75;2.40;;;;;;;5.18;100.00;100738.94;10411924;28;20041;-59
2022/03/19 09:36:05;;;;;;;7.82;2.35;;;;;;;5.19;100.00;100730.00;10408486;28;20047;-56
2022/03/19 09:41:09;;;;;;;10.23;2.60;;;;;;;5.21;100.00;100732.59;10410871;28;20042;-59
2022/03/19 09:46:14;;;;;;;6.70;2.30;;;;;;;5.45;100.00;100725.25;10407427;28;20971;-62
2022/03/19 09:51:18;;;;;;;5.10;1.90;;;;;;;5.55;100.00;100710.53;10406745;28;20046;-61
2022/03/19 09:56:22;;;;;;;4.57;1.98;;;;;;;5.69;100.00;100709.84;10400459;28;20058;-60
2022/03/19 10:01:26;;;;;;;6.88;2.20;;;;;;;5.80;100.00;100698.66;10418078;28;20046;-61
2022/03/19 10:11:53;;;;;;;;;;;;;;;6.14;100.00;100686.31;10426443;28;20037;-55
2022/03/19 10:16:59;;;;;;;5.88;2.03;;;;;;;6.29;100.00;100679.31;10392206;28;19921;-60
2022/03/19 10:22:08;;;;;;;6.40;2.10;;;;;;;6.28;100.00;100666.00;10396697;28;20041;-62
2022/03/19 10:27:20;;;;;;;5.90;1.63;;;;;;;6.39;100.00;100652.94;10412716;28;20056;-55
2022/03/19 10:32:28;;;;;;;5.75;2.05;;;;;;;6.59;100.00;100654.56;10413048;28;20045;-64
2022/03/19 10:37:35;;;;;;;4.63;1.75;;;;;;;6.81;100.00;100658.81;10432127;28;20108;-59
2022/03/19 10:42:40;;;;;;;6.18;1.92;;;;;;;7.03;100.00;100636.19;10418773;28;20069;-63
2022/03/19 10:47:47;;;;;;;9.48;1.77;;;;;;;7.14;100.00;100628.44;10417049;28;20073;-63
2022/03/19 10:52:52;;;;;;;3.92;1.40;;;;;;;7.17;100.00;100611.28;10411204;28;20579;-61
2022/03/19 10:57:55;;;;;;;5.00;1.60;;;;;;;7.40;100.00;100604.66;10406163;28;20088;-60
2022/03/19 11:03:04;;;;;;;5.63;1.67;;;;;;;7.76;100.00;100591.88;10413353;28;20136;-59
2022/03/19 11:08:08;;;;;;;4.60;1.73;;;;;;;7.99;100.00;100594.06;10421239;28;20076;-59
2022/03/19 11:13:16;;;;;;;4.50;1.58;;;;;;;8.08;100.00;100591.78;10418381;28;20136;-61
2022/03/19 11:18:21;;;;;;;3.95;1.33;;;;;;;8.26;100.00;100563.84;10401021;28;20532;-61
2022/03/19 11:23:32;;;;;;;3.60;1.35;;;;;;;8.64;100.00;100567.84;10423135;28;20037;-54
2022/03/19 11:28:35;;;;;;;4.55;1.50;;;;;;;8.74;84.25;100563.59;10416334;28;20136;-59
2022/03/19 11:33:40;;;;;;;3.42;1.02;;;;;;;8.42;76.99;100554.81;10418144;28;20081;-60
2022/03/19 11:38:50;;;;;;;4.00;1.27;;;;;;;8.17;83.01;100542.94;10410827;28;20413;-60
2022/03/19 11:44:17;;;;;;;3.78;1.30;;;;;;;8.15;88.32;100545.69;10411774;28;20129;-59
2022/03/19 11:49:49;;;;;;;4.32;1.35;;;;;;;7.81;84.73;100531.63;10418503;28;20521;-60
2022/03/19 11:55:06;;;;;;;;;;;;;;;7.68;98.06;100522.56;10398949;28;20045;-58
2022/03/19 12:00:15;;;;;;;3.67;1.60;;;;;;;7.67;99.23;100528.88;10415453;28;19925;-63
2022/03/19 12:05:22;;;;;;;5.00;1.67;;;;;;;7.72;100.00;100527.66;10413922;28;20575;-65
2022/03/19 12:10:31;;;;;;;5.32;1.80;;;;;;;7.38;100.00;100510.84;10410353;28;20510;-60
2022/03/19 12:15:46;;;;;;;4.10;1.52;;;;;;;7.14;100.00;100501.53;10408838;28;20037;-62
2022/03/19 12:20:52;;;;;;;5.68;1.67;;;;;;;7.25;100.00;100508.03;10394062;28;20065;-59
2022/03/19 12:26:01;;;;;;;7.07;1.70;;;;;;;7.29;100.00;100502.50;10411520;28;20052;-60
2022/03/19 12:31:08;;;;;;;5.32;1.80;;;;;;;7.18;100.00;100489.72;10409118;28;20042;-58
2022/03/19 12:36:17;;;;;;;4.00;1.50;;;;;;;7.22;100.00;100496.63;10418999;28;20076;-61
2022/03/19 12:41:28;;;;;;;3.97;1.65;;;;;;;7.09;100.00;100491.09;10409662;28;20072;-57
2022/03/19 12:47:02;;;;;;;5.53;1.80;;;;;;;6.90;100.00;100477.88;10410994;28;20053;-60
2022/03/19 12:52:10;;;;;;;4.97;1.75;;;;;;;6.90;100.00;100480.56;10409623;28;20041;-58
2022/03/19 12:57:17;;;;;;;6.07;2.00;;;;;;;6.83;100.00;100476.50;10415285;28;20116;-61
2022/03/19 13:02:26;;;;;;;5.80;2.15;;;;;;;6.99;100.00;100465.78;10408961;28;20050;-61
2022/03/19 13:07:32;;;;;;;3.97;1.95;;;;;;;7.12;100.00;100458.75;10408062;28;20058;-58
2022/03/19 13:12:37;;;;;;;3.95;1.98;;;;;;;7.19;100.00;100464.63;10411556;28;20076;-57
2022/03/19 13:17:41;;;;;;;4.20;2.55;;;;;;;7.16;100.00;100441.56;10407715;28;20125;-61
2022/03/19 13:22:46;;;;;;;4.93;2.80;;;;;;;7.29;100.00;100444.38;10409259;28;20375;-61
2022/03/19 13:27:53;;;;;;;7.80;2.90;;;;;;;7.44;100.00;100445.25;10405431;28;20056;-60
2022/03/19 13:32:58;;;;;;;4.88;2.85;;;;;;;7.56;100.00;100432.97;10408263;28;20077;-61
2022/03/19 13:38:10;;;;;;;5.07;3.38;;;;;;;7.44;100.00;100431.00;10410673;28;20134;-59
2022/03/19 13:43:13;;;;;;;7.30;3.60;;;;;;;7.18;100.00;100428.91;10437023;28;20769;-60
2022/03/19 13:48:23;;;;;;;6.68;4.18;;;;;;;7.11;100.00;100424.00;10400864;28;20138;-59
2022/03/19 14:00:27;;;;;;;7.13;4.43;;;;;;;6.86;100.00;100402.16;10415703;28;20112;-60
2022/03/19 14:05:34;;;;;;;7.47;4.95;;;;;;;6.78;100.00;100410.63;10410872;28;20088;-61
2022/03/19 14:10:38;;;;;;;7.80;4.75;;;;;;;6.74;100.00;100405.53;10391135;28;20095;-60
2022/03/19 14:15:45;;;;;;;6.07;4.53;;;;;;;6.74;100.00;100406.41;10407510;28;20041;-61
2022/03/19 14:20:48;;;;;;;6.43;4.57;;;;;;;6.74;100.00;100414.47;10387620;28;20626;-59
2022/03/19 14:25:52;;;;;;;7.50;4.70;;;;;;;6.88;100.00;100410.13;10409900;28;20571;-60
2022/03/19 14:30:57;;;;;;;6.60;4.60;;;;;;;6.98;100.00;100405.97;10411704;28;20391;-61
2022/03/19 14:36:03;;;;;;;5.28;4.32;;;;;;;6.89;100.00;100393.06;10409697;28;20124;-61
2022/03/19 14:41:08;;;;;;;5.18;4.22;;;;;;;6.82;100.00;100387.19;10418554;28;20482;-60
2022/03/19 14:46:13;;;;;;;6.70;4.30;;;;;;;6.77;100.00;100390.16;10418093;28;20127;-60
2022/03/19 14:51:16;;;;;;;7.25;4.53;;;;;;;6.76;100.00;100390.25;10399223;28;20417;-59
2022/03/19 14:56:20;;;;;;;5.90;4.47;;;;;;;7.38;100.00;100382.13;10419097;28;20132;-58
2022/03/19 15:01:25;;;;;;;6.22;4.60;;;;;;;7.88;99.94;100372.91;10422061;28;20124;-60
2022/03/19 15:06:30;;;;;;;8.50;4.30;;;;;;;8.32;92.78;100372.75;10418301;28;20124;-59
2022/03/19 15:11:34;;;;;;;5.80;4.20;;;;;;;8.27;93.63;100369.53;10428899;28;20072;-62
2022/03/19 15:16:40;;;;;;;5.18;4.20;;;;;;;8.26;88.06;100364.22;10399973;28;20430;-63
2022/03/19 15:21:43;;;;;;;4.53;3.95;;;;;;;8.52;87.76;100353.66;10433372;28;20041;-63
2022/03/19 15:26:47;;;;;;;6.78;3.97;;;;;;;8.88;77.65;100344.13;10430537;28;20470;-61
2022/03/19 15:31:51;;;;;;;4.55;3.60;;;;;;;9.14;82.25;100349.56;10442478;28;20481;-63
2022/03/19 15:36:54;;;;;;;6.25;4.05;;;;;;;8.68;87.26;100346.31;10413833;28;20370;-63
2022/03/19 15:41:57;;;;;;;6.15;3.90;;;;;;;8.32;81.39;100343.22;10440661;28;20041;-62
2022/03/19 15:47:01;;;;;;;6.63;3.85;;;;;;;8.20;76.64;100349.38;10434692;28;20144;-63
2022/03/19 15:52:07;;;;;;;7.30;3.75;;;;;;;8.20;81.51;100346.69;10441888;28;20128;-62
2022/03/19 15:57:10;;;;;;;4.68;3.67;;;;;;;7.83;85.01;100340.97;10430377;28;20057;-62
2022/03/19 16:02:14;;;;;;;6.32;4.10;;;;;;;7.44;86.92;100337.97;10425816;28;20048;-63
2022/03/19 16:07:18;;;;;;;5.55;3.95;;;;;;;7.04;89.63;100327.84;10433314;28;20123;-63
2022/03/19 16:12:21;;;;;;;7.38;4.25;;;;;;;6.86;95.49;100328.97;10430097;28;20121;-62
2022/03/19 16:17:26;;;;;;;4.80;4.30;;;;;;;6.98;95.64;100317.53;10435058;28;20079;-62
2022/03/19 16:22:29;;;;;;;4.85;4.07;;;;;;;7.05;99.54;100324.22;10421355;28;20041;-62
2022/03/19 16:27:33;;;;;;;6.28;5.03;;;;;;;7.01;100.00;100327.19;10436902;28;20116;-62
2022/03/19 16:32:37;;;;;;;6.88;4.72;;;;;;;6.72;99.37;100313.69;10432134;28;20095;-63
2022/03/19 16:37:41;;;;;;;6.18;4.85;;;;;;;6.54;100.00;100316.50;10431384;28;20059;-62
2022/03/19 16:42:44;;;;;;;5.13;4.53;;;;;;;6.34;100.00;100317.63;10427053;28;20099;-60
2022/03/19 16:47:48;;;;;;;6.95;5.20;;;;;;;6.25;100.00;100318.16;10420690;28;20136;-57
2022/03/19 16:52:51;;;;;;;5.90;5.07;;;;;;;6.06;100.00;100307.63;10421719;28;20045;-60
2022/03/19 16:57:54;;;;;;;7.72;5.57;;;;;;;5.90;100.00;100307.56;10424971;28;20124;-59
2022/03/19 17:02:59;;;;;;;6.25;5.50;;;;;;;5.78;100.00;100318.00;10422283;28;20120;-60
2022/03/19 17:08:02;;;;;;;7.40;5.80;;;;;;;5.65;100.00;100315.13;10420872;28;20034;-60
2022/03/19 17:13:07;;;;;;;9.50;6.20;;;;;;;5.53;100.00;100318.44;10408979;28;20112;-62
2022/03/19 17:18:12;;;;;;;6.40;5.65;;;;;;;5.40;100.00;100319.13;10412134;28;20124;-61
2022/03/19 17:23:15;;;;;;;9.20;6.40;;;;;;;5.30;100.00;100330.38;10428699;28;20478;-62
2022/03/19 17:28:18;;;;;;;7.97;6.00;;;;;;;5.17;100.00;100333.69;10422308;28;20498;-62
2022/03/19 17:33:23;;;;;;;9.00;6.50;;;;;;;5.06;100.00;100333.38;10425694;28;20060;-62
2022/03/19 17:38:27;;;;;;;8.60;6.50;;;;;;;5.02;100.00;100337.13;10419576;28;20068;-62
2022/03/19 17:43:30;;;;;;;7.97;6.47;;;;;;;4.94;100.00;100338.41;10431251;28;20051;-62
2022/03/19 17:48:35;;;;;;;8.43;6.72;;;;;;;4.82;100.00;100336.34;10401578;28;20068;-60
2022/03/19 17:53:38;;;;;;;7.63;6.45;;;;;;;4.72;100.00;100340.44;10424754;28;20045;-60
2022/03/19 17:58:41;;;;;;;9.75;6.70;;;;;;;4.66;100.00;100335.38;10422088;28;20125;-61
2022/03/19 18:03:45;;;;;;;10.43;6.25;;;;;;;4.55;100.00;100333.25;10433227;28;20046;-61
2022/03/19 18:08:49;;;;;;;9.00;6.30;;;;;;;4.48;100.00;100330.88;10425365;28;20075;-59
2022/03/19 18:13:52;;;;;;;10.00;6.00;;;;;;;4.42;100.00;100322.28;10429219;28;20493;-60
2022/03/19 18:19:00;;;;;;;9.57;6.45;;;;;;;4.34;100.00;100329.81;10430451;28;20074;-62
2022/03/19 18:24:06;;;;;;;8.40;6.50;;;;;;;4.27;100.00;100327.47;10423910;28;20092;-61
2022/03/19 18:29:10;;;;;;;9.80;6.63;;;;;;;4.19;100.00;100318.94;10416056;28;20037;-62
2022/03/19 18:34:15;;;;;;;10.63;6.30;;;;;;;4.12;100.00;100323.69;10400783;28;20585;-62
2022/03/19 18:39:18;;;;;;;7.95;6.20;;;;;;;4.01;100.00;100324.22;10420926;28;20073;-59
2022/03/19 18:44:22;;;;;;;7.45;6.10;;;;;;;3.91;100.00;100319.38;10426693;28;20491;-59
2022/03/19 18:49:27;;;;;;;7.93;6.60;;;;;;;3.79;100.00;100324.34;10431747;28;20092;-61
2022/03/19 18:54:30;;;;;;;13.63;6.28;;;;;;;3.70;98.56;100320.31;10427417;28;20069;-61
2022/03/19 18:59:36;;;;;;;7.35;6.05;;;;;;;3.67;99.19;100319.59;10404622;28;20136;-60
2022/03/19 19:04:42;;;;;;;8.02;6.40;;;;;;;3.62;96.22;100317.13;10431226;28;20102;-60
2022/03/19 19:09:45;;;;;;;8.88;6.55;;;;;;;3.58;93.66;100312.91;10428387;28;20045;-61
2022/03/19 19:14:48;;;;;;;9.23;5.93;;;;;;;3.53;91.37;100317.56;10429614;28;20146;-59
2022/03/19 19:19:52;;;;;;;7.50;6.15;;;;;;;3.50;89.34;100321.22;10432157;28;20084;-61
2022/03/19 19:24:57;;;;;;;8.48;6.13;;;;;;;3.45;91.07;100319.72;10435310;28;20183;-60
2022/03/19 19:30:00;;;;;;;8.45;6.38;;;;;;;3.42;90.50;100322.50;10435152;28;20087;-61
2022/03/19 19:35:05;;;;;;;7.03;6.03;;;;;;;3.35;88.34;100325.44;10412712;28;20049;-61
2022/03/19 19:40:09;;;;;;;8.45;6.28;;;;;;;3.31;85.07;100322.97;10430850;28;20389;-61
2022/03/19 19:45:13;;;;;;;10.25;6.00;;;;;;;3.22;87.64;100308.28;10439002;28;20106;-61
2022/03/19 19:50:18;;;;;;;7.65;5.63;;;;;;;3.19;83.37;100308.41;10429283;28;20072;-61
2022/03/19 19:55:21;;;;;;;7.60;5.50;;;;;;;3.12;80.30;100301.63;10422716;28;20463;-61
2022/03/19 20:00:30;;;;;;;8.00;5.40;;;;;;;3.07;80.03;100289.38;10434975;28;20069;-62
2022/03/19 20:05:35;;;;;;;8.02;5.75;;;;;;;3.02;80.75;100278.03;10429226;28;20064;-60
2022/03/19 20:10:38;;;;;;;7.38;5.47;;;;;;;3.01;77.80;100278.97;10433103;28;20570;-59
2022/03/19 20:15:42;;;;;;;6.47;5.45;;;;;;;2.98;79.35;100275.59;10436311;28;20041;-60
2022/03/19 20:20:46;;;;;;;7.10;5.35;;;;;;;2.95;78.70;100273.03;10427056;28;20099;-61
2022/03/19 20:25:54;;;;;;;6.85;5.60;;;;;;;2.88;79.95;100277.81;10428837;28;20083;-60
2022/03/19 20:30:57;;;;;;;7.03;5.10;;;;;;;2.80;79.25;100270.13;10433248;28;20045;-59
2022/03/19 20:36:08;;;;;;;7.22;5.10;;;;;;;2.78;76.56;100256.03;10429712;28;20416;-59
2022/03/19 20:41:11;;;;;;;8.77;5.25;;;;;;;2.78;74.30;100256.88;10427006;28;20133;-61
2022/03/19 20:46:14;;;;;;;6.78;5.28;;;;;;;2.81;71.72;100260.34;10427717;28;20056;-61
2022/03/19 20:51:19;;;;;;;5.70;5.13;;;;;;;2.75;72.10;100246.38;10406874;28;20086;-61
2022/03/19 20:56:22;;;;;;;7.55;5.10;;;;;;;2.71;74.83;100246.56;10414828;28;20473;-60
2022/03/19 21:01:25;;;;;;;7.53;5.65;;;;;;;2.60;76.34;100247.03;10425974;28;20124;-61
2022/03/19 21:06:29;;;;;;;6.45;5.25;;;;;;;2.53;79.00;100245.56;10426758;28;20041;-60
2022/03/19 21:11:41;;;;;;;7.35;5.40;;;;;;;2.42;81.35;100249.53;10449625;22;20049;-51
2022/03/19 21:16:45;;;;;;;;;;;;;;;2.31;79.58;100257.09;10448781;28;20040;-52
2022/03/19 21:21:50;;;;;;;6.80;5.50;;;;;;;2.22;84.71;100246.84;10425585;28;19947;-54
2022/03/19 21:26:53;;;;;;;8.60;5.38;;;;;;;2.17;85.44;100232.88;10438449;28;20037;-55
2022/03/19 21:31:56;;;;;;;7.60;5.38;;;;;;;2.08;86.51;100232.31;10433023;28;20222;-55
2022/03/19 21:37:02;;;;;;;6.13;5.47;;;;;;;2.04;85.96;100224.50;10437050;28;20096;-53
2022/03/19 21:42:06;;;;;;;6.30;5.10;;;;;;;2.01;87.48;100212.22;10424620;28;20045;-53
2022/03/19 21:47:09;;;;;;;6.43;5.22;;;;;;;1.99;83.25;100204.31;10439413;28;20102;-54
2022/03/19 21:52:15;;;;;;;7.72;5.50;;;;;;;2.00;82.58;100211.34;10430139;28;20094;-55
2022/03/19 21:57:19;;;;;;;6.95;5.50;;;;;;;1.95;85.26;100209.78;10439544;28;20136;-56
2022/03/19 22:02:22;;;;;;;8.02;5.55;;;;;;;1.90;85.08;100199.34;10441262;28;20041;-57
2022/03/19 22:07:28;;;;;;;7.53;4.97;;;;;;;1.91;85.51;100198.44;10426699;28;20103;-54
2022/03/19 22:12:52;;;;;;;6.65;5.47;;;;;;;1.90;84.08;100187.88;10432520;28;20544;-55
2022/03/19 22:18:07;;;;;;;6.22;4.80;;;;;;;1.88;83.52;100176.44;10429029;28;20033;-52
2022/03/19 22:23:12;;;;;;;6.95;5.53;;;;;;;1.87;84.27;100177.34;10411676;28;20042;-53
2022/03/19 22:28:17;;;;;;;6.68;5.40;;;;;;;1.90;83.19;100183.41;10423288;28;20463;-54
2022/03/19 22:33:22;;;;;;;6.63;5.30;;;;;;;1.85;85.12;100186.25;10429760;28;20038;-55
2022/03/19 22:38:27;;;;;;;7.35;5.40;;;;;;;1.78;84.58;100184.78;10433030;28;20569;-55
2022/03/19 22:43:32;;;;;;;7.72;5.95;;;;;;;1.73;86.30;100181.44;10440716;28;20057;-55
2022/03/19 22:48:35;;;;;;;7.10;5.70;;;;;;;1.68;88.68;100173.66;10425573;28;20049;-54
2022/03/19 22:53:40;;;;;;;7.60;5.85;;;;;;;1.60;90.52;100174.88;10432786;28;20519;-55
2022/03/19 22:58:43;;;;;;;7.47;5.70;;;;;;;1.54;90.71;100176.88;10440860;28;20041;-53
2022/03/19 23:03:46;;;;;;;8.45;5.57;;;;;;;1.49;91.30;100170.84;10439247;28;20037;-52
2022/03/19 23:08:53;;;;;;;7.00;5.65;;;;;;;1.44;91.83;100170.19;10437868;28;20056;-49
2022/03/19 23:13:57;;;;;;;8.32;5.80;;;;;;;1.42;92.28;100164.06;10440143;28;20047;-53
2022/03/19 23:19:01;;;;;;;8.93;5.68;;;;;;;1.36;92.20;100174.91;10440405;28;20087;-51
2022/03/19 23:24:06;;;;;;;7.03;5.63;;;;;;;1.32;95.83;100160.03;10437335;28;20440;-49
2022/03/19 23:29:09;;;;;;;8.35;5.72;;;;;;;1.28;97.64;100161.06;10436951;28;20080;-49
2022/03/19 23:34:13;;;;;;;6.30;5.68;;;;;;;1.22;96.90;100154.19;10420738;28;20420;-53
2022/03/19 23:39:17;;;;;;;8.27;5.85;;;;;;;1.21;98.07;100152.47;10452384;28;20881;-54
2022/03/19 23:44:20;;;;;;;8.82;6.10;;;;;;;1.18;99.09;100155.22;10437910;28;20033;-51
2022/03/19 23:49:24;;;;;;;7.20;5.40;;;;;;;1.15;98.67;100142.94;10438644;28;20116;-52